CheckWX is a tool to help pilots better visualize weather data.  It is not intended as a substitute for an official pre-flight weather briefing.

09:54:12 UTC

KOCF METAR
Ocala International-Jim Taylor Field Airport
Ocala, Florida, USA
Current

1 hour ago

KOCF 250851Z AUTO 02003KT 10SM CLR 24/23 A2993 RMK AO2 SLP135 T02390233 56014 $
Observed
Aug-25 @ 08:51 UTC
Wind
  • 020° at 3 KTS
Visibility
10 SM
Flight Rules
VFR
Cloud Levels
  • Clear skies
Temperature
24°C / 75°F
Dewpoint
23°C / 73°F
Humidity
94%
Altimeter
29.93" Hg
Pressure
1013.52 hPa
Previous

2 hours ago

KOCF 250751Z AUTO 01003KT 10SM CLR 24/24 A2993 RMK AO2 SLP137 T02440239 $
Observed
Aug-25 @ 07:51 UTC
Wind
  • 010° at 3 KTS
Visibility
10 SM
Flight Rules
VFR
Cloud Levels
  • Clear skies
Temperature
24°C / 75°F
Dewpoint
24°C / 75°F
Humidity
100%
Altimeter
29.93" Hg
Pressure
1013.52 hPa
Previous

3 hours ago

KOCF 250651Z AUTO 00000KT 10SM CLR 24/24 A2994 RMK AO2 SLP139 T02440239 $
Observed
Aug-25 @ 06:51 UTC
Visibility
10 SM
Flight Rules
VFR
Cloud Levels
  • Clear skies
Temperature
24°C / 75°F
Dewpoint
24°C / 75°F
Humidity
100%
Altimeter
29.94" Hg
Pressure
1013.92 hPa